createdAt,value
2023-08-02T00:00:43.819Z,19.40
2023-08-02T00:03:11.264Z,19.40
2023-08-02T00:05:38.437Z,19.40
2023-08-02T00:08:05.835Z,19.40
2023-08-02T00:10:37.348Z,19.40
2023-08-02T00:13:04.601Z,19.70
2023-08-02T00:15:31.789Z,19.60
2023-08-02T00:17:59.032Z,19.50
2023-08-02T00:20:26.407Z,19.30
2023-08-02T00:22:53.630Z,19.10
2023-08-02T00:25:20.864Z,19.00
2023-08-02T00:27:47.984Z,19.00
2023-08-02T00:30:15.345Z,18.90
2023-08-02T00:32:46.649Z,18.90
2023-08-02T00:35:14.299Z,18.90
2023-08-02T00:37:45.948Z,18.90
2023-08-02T00:40:13.620Z,18.90
2023-08-02T00:42:40.912Z,18.90
2023-08-02T00:45:08.821Z,18.90
2023-08-02T00:47:37.305Z,18.90
2023-08-02T00:50:06.303Z,19.00
2023-08-02T00:52:33.918Z,19.00
2023-08-02T00:55:01.143Z,18.80
2023-08-02T00:57:28.696Z,18.80
2023-08-02T00:59:55.814Z,18.80
2023-08-02T01:02:23.067Z,18.80
2023-08-02T01:04:50.449Z,18.70
2023-08-02T01:07:29.415Z,18.70
2023-08-02T01:10:15.339Z,18.70
2023-08-02T01:12:46.650Z,18.70
2023-08-02T01:15:16.989Z,18.80
2023-08-02T01:17:45.342Z,18.80
2023-08-02T01:20:12.820Z,18.70
2023-08-02T01:22:40.127Z,18.60
2023-08-02T01:25:08.145Z,18.60
2023-08-02T01:27:36.846Z,18.60
2023-08-02T01:30:07.689Z,18.60
2023-08-02T01:32:35.318Z,18.60
2023-08-02T01:35:03.175Z,18.60
2023-08-02T01:37:35.760Z,18.60
2023-08-02T01:40:04.141Z,18.70
2023-08-02T01:42:34.192Z,18.80
2023-08-02T01:45:01.707Z,18.80
2023-08-02T01:47:33.144Z,18.80
2023-08-02T01:50:00.524Z,18.80
2023-08-02T01:52:27.863Z,18.70
2023-08-02T01:54:55.015Z,18.70
2023-08-02T01:57:22.334Z,18.70
2023-08-02T01:59:49.513Z,18.80
2023-08-02T02:02:17.551Z,18.80
2023-08-02T02:04:45.438Z,18.70
2023-08-02T02:07:13.097Z,18.70
2023-08-02T02:09:40.299Z,18.70
2023-08-02T02:12:07.888Z,18.80
2023-08-02T02:14:35.591Z,18.80
2023-08-02T02:17:03.608Z,18.90
2023-08-02T02:19:30.785Z,18.80
2023-08-02T02:21:58.602Z,18.70
2023-08-02T02:24:25.778Z,18.80
2023-08-02T02:26:53.057Z,18.90
2023-08-02T02:29:20.560Z,18.90
2023-08-02T02:31:47.732Z,18.70
2023-08-02T02:34:14.925Z,18.80
2023-08-02T02:36:45.416Z,18.80
2023-08-02T02:39:13.079Z,18.90
2023-08-02T02:41:40.315Z,19.00
2023-08-02T02:44:07.829Z,19.10
2023-08-02T02:46:35.002Z,19.10
2023-08-02T02:49:02.202Z,19.10
2023-08-02T02:51:29.704Z,19.20
2023-08-02T02:53:56.845Z,19.40
2023-08-02T02:56:24.027Z,19.40
2023-08-02T02:58:51.214Z,19.30
2023-08-02T03:01:18.684Z,19.40
2023-08-02T03:03:45.970Z,19.40
2023-08-02T03:06:13.370Z,19.30
2023-08-02T03:08:40.580Z,19.40
2023-08-02T03:11:07.889Z,19.50
2023-08-02T03:13:35.068Z,19.50
2023-08-02T03:16:02.580Z,19.50
2023-08-02T03:18:29.757Z,19.50
2023-08-02T03:20:57.029Z,19.50
2023-08-02T03:23:24.373Z,19.70
2023-08-02T03:25:51.578Z,19.70
2023-08-02T03:28:18.880Z,19.70
2023-08-02T03:30:46.338Z,19.80
2023-08-02T03:33:13.550Z,19.80
2023-08-02T03:35:40.906Z,19.80
2023-08-02T03:38:08.152Z,19.60
2023-08-02T03:40:35.350Z,19.60
2023-08-02T03:43:02.519Z,19.60
2023-08-02T03:45:30.249Z,19.80
2023-08-02T03:47:57.534Z,19.80
2023-08-02T03:50:25.027Z,19.90
2023-08-02T03:52:52.337Z,20.00
2023-08-02T03:55:19.588Z,19.90
2023-08-02T03:57:48.018Z,19.80
2023-08-02T04:00:15.325Z,20.10
2023-08-02T04:02:42.951Z,20.40
2023-08-02T04:05:10.406Z,20.20
2023-08-02T04:07:37.630Z,20.40
2023-08-02T04:10:05.096Z,20.50
2023-08-02T04:12:33.422Z,20.40
2023-08-02T04:15:00.785Z,20.60
2023-08-02T04:17:29.041Z,20.80
2023-08-02T04:19:56.242Z,20.80
2023-08-02T04:22:23.544Z,20.90
2023-08-02T04:24:50.768Z,20.60
2023-08-02T04:27:17.923Z,20.50
2023-08-02T04:29:45.253Z,20.50
2023-08-02T04:32:12.489Z,20.70
2023-08-02T04:34:39.630Z,20.50
2023-08-02T04:37:06.827Z,20.50
2023-08-02T04:39:34.164Z,20.30
2023-08-02T04:42:04.121Z,20.30
2023-08-02T04:44:31.361Z,20.30
2023-08-02T04:46:58.579Z,20.40
2023-08-02T04:49:25.925Z,20.50
2023-08-02T04:51:53.177Z,20.90
2023-08-02T04:54:20.364Z,21.10
2023-08-02T04:56:47.785Z,21.40
2023-08-02T04:59:15.184Z,21.10
2023-08-02T05:01:42.834Z,21.00
2023-08-02T05:04:10.695Z,21.10
2023-08-02T05:06:38.022Z,21.30
2023-08-02T05:09:06.200Z,21.30
2023-08-02T05:11:33.622Z,21.50
2023-08-02T05:14:00.899Z,21.70
2023-08-02T05:16:28.485Z,21.80
2023-08-02T05:18:56.702Z,21.40
2023-08-02T05:21:25.083Z,21.30
2023-08-02T05:23:54.516Z,21.50
2023-08-02T05:26:22.663Z,21.40
2023-08-02T05:28:49.891Z,21.20
2023-08-02T05:31:18.546Z,21.20
2023-08-02T05:33:47.915Z,21.30
2023-08-02T05:36:16.446Z,21.30
2023-08-02T05:38:43.646Z,21.30
2023-08-02T05:41:10.836Z,21.20
2023-08-02T05:43:42.968Z,21.10
2023-08-02T05:46:10.301Z,21.20
2023-08-02T05:48:37.535Z,21.30
2023-08-02T05:51:04.679Z,21.30
2023-08-02T05:53:31.868Z,21.40
2023-08-02T05:55:59.364Z,21.60
2023-08-02T05:58:26.681Z,21.40
2023-08-02T06:00:53.871Z,21.60
2023-08-02T06:03:21.224Z,21.60
2023-08-02T06:05:50.187Z,21.80
2023-08-02T06:08:17.768Z,21.60
2023-08-02T06:10:44.939Z,22.20
2023-08-02T06:13:12.330Z,22.30
2023-08-02T06:15:39.840Z,22.70
2023-08-02T06:18:07.219Z,22.50
2023-08-02T06:20:34.565Z,22.40
2023-08-02T06:23:02.247Z,22.70
2023-08-02T06:25:29.603Z,22.80
2023-08-02T06:27:56.886Z,22.50
2023-08-02T06:30:24.038Z,22.50
2023-08-02T06:32:51.332Z,22.60
2023-08-02T06:35:18.583Z,22.50
2023-08-02T06:37:45.843Z,22.60
2023-08-02T06:40:13.127Z,23.20
2023-08-02T06:42:40.520Z,23.50
2023-08-02T06:45:08.381Z,23.50
2023-08-02T06:47:35.626Z,23.20
2023-08-02T06:50:03.331Z,23.20
2023-08-02T06:52:32.084Z,23.30
2023-08-02T06:54:59.365Z,23.60
2023-08-02T06:57:26.563Z,23.80
2023-08-02T06:59:54.377Z,23.50
2023-08-02T07:02:22.626Z,23.50
2023-08-02T07:04:49.807Z,23.40
2023-08-02T07:07:17.073Z,23.40
2023-08-02T07:09:47.725Z,24.00
2023-08-02T07:12:14.927Z,23.90
2023-08-02T07:14:42.233Z,23.80
2023-08-02T07:17:09.411Z,24.00
2023-08-02T07:19:37.559Z,24.00
2023-08-02T07:22:04.920Z,24.70
2023-08-02T07:24:32.119Z,24.70
2023-08-02T07:26:59.284Z,24.50
2023-08-02T07:29:26.455Z,24.80
2023-08-02T07:31:53.795Z,25.20
2023-08-02T07:34:21.293Z,24.90
2023-08-02T07:36:48.546Z,24.90
2023-08-02T07:39:16.158Z,25.10
2023-08-02T07:41:43.892Z,24.60
2023-08-02T07:44:11.330Z,24.70
2023-08-02T07:46:38.700Z,25.00
2023-08-02T07:49:06.159Z,24.30
2023-08-02T07:51:33.631Z,24.20
2023-08-02T07:54:01.829Z,24.80
2023-08-02T07:56:29.252Z,24.30
2023-08-02T07:58:56.486Z,24.80
2023-08-02T08:01:23.686Z,25.30
2023-08-02T08:03:50.884Z,25.30
2023-08-02T08:06:22.272Z,25.10
2023-08-02T08:08:50.023Z,25.70
2023-08-02T08:11:17.418Z,26.40
2023-08-02T08:13:44.739Z,26.50
2023-08-02T08:16:12.120Z,27.10
2023-08-02T08:18:39.417Z,26.00
2023-08-02T08:21:07.655Z,25.90
2023-08-02T08:23:35.285Z,26.60
2023-08-02T08:26:02.599Z,26.30
2023-08-02T08:28:30.333Z,26.40
2023-08-02T08:31:04.828Z,26.00
2023-08-02T08:33:33.044Z,25.20
2023-08-02T08:36:00.431Z,24.80
2023-08-02T08:38:27.816Z,25.60
2023-08-02T08:40:56.174Z,26.20
2023-08-02T08:43:28.578Z,26.70
2023-08-02T08:45:57.626Z,26.10
2023-08-02T08:48:27.150Z,25.80
2023-08-02T08:50:58.933Z,24.80
2023-08-02T08:53:34.173Z,24.50
2023-08-02T08:56:03.584Z,25.00
2023-08-02T08:58:34.102Z,25.80
2023-08-02T09:01:04.953Z,26.50
2023-08-02T09:03:36.345Z,27.30
2023-08-02T09:06:05.481Z,28.40
2023-08-02T09:08:44.040Z,28.70
2023-08-02T09:11:12.567Z,28.70
2023-08-02T09:13:40.053Z,28.40
2023-08-02T09:16:17.882Z,28.40
2023-08-02T09:18:50.146Z,27.80
2023-08-02T09:21:23.048Z,29.00
2023-08-02T09:23:57.729Z,29.60
2023-08-02T09:26:25.223Z,29.30
2023-08-02T09:29:05.282Z,30.20
2023-08-02T09:31:35.092Z,30.30
2023-08-02T09:34:03.334Z,29.60
2023-08-02T09:36:32.503Z,29.90
2023-08-02T09:39:18.105Z,30.60
2023-08-02T09:44:24.921Z,31.00
2023-08-02T09:46:52.580Z,29.60
2023-08-02T09:49:22.820Z,27.30
2023-08-02T09:51:50.307Z,26.40
2023-08-02T09:54:17.664Z,27.70
2023-08-02T09:56:45.122Z,28.90
2023-08-02T09:59:13.837Z,29.00
2023-08-02T10:01:42.368Z,28.80
2023-08-02T10:04:11.837Z,29.50
2023-08-02T10:07:19.633Z,29.50
2023-08-02T10:09:48.992Z,29.90
2023-08-02T10:12:18.021Z,31.00
2023-08-02T10:14:46.125Z,30.90
2023-08-02T10:17:13.999Z,29.60
2023-08-02T10:19:42.438Z,30.70
2023-08-02T10:22:12.690Z,32.00
2023-08-02T10:24:42.169Z,31.70
2023-08-02T10:27:10.282Z,31.50
2023-08-02T10:29:39.178Z,31.70
2023-08-02T10:32:14.252Z,31.80
2023-08-02T10:34:41.736Z,31.90
2023-08-02T10:37:09.258Z,30.50
2023-08-02T10:39:48.858Z,28.00
2023-08-02T10:42:20.970Z,27.60
2023-08-02T10:44:57.289Z,30.50
2023-08-02T10:47:33.324Z,32.00
2023-08-02T10:50:02.660Z,30.70
2023-08-02T10:52:37.478Z,30.40
2023-08-02T10:55:15.286Z,31.60
2023-08-02T10:57:58.249Z,31.10
2023-08-02T11:00:32.397Z,31.60
2023-08-02T11:03:02.750Z,31.30
2023-08-02T11:05:48.010Z,29.50
2023-08-02T11:08:15.414Z,28.90
2023-08-02T11:10:52.770Z,31.50
2023-08-02T11:13:21.143Z,29.70
2023-08-02T11:15:59.974Z,28.00
2023-08-02T11:21:08.062Z,26.70
2023-08-02T11:23:35.434Z,26.40
2023-08-02T11:26:13.977Z,26.60
2023-08-02T11:28:44.389Z,26.70
2023-08-02T11:31:12.823Z,26.40
2023-08-02T11:33:41.654Z,26.50
2023-08-02T11:36:09.092Z,26.40
2023-08-02T11:38:40.755Z,27.10
2023-08-02T11:41:19.961Z,27.20
2023-08-02T11:43:48.617Z,30.30
2023-08-02T11:46:16.933Z,30.50
2023-08-02T11:48:44.320Z,30.60
2023-08-02T11:51:12.983Z,30.00
2023-08-02T11:53:56.783Z,29.80
2023-08-02T11:56:25.402Z,30.40
2023-08-02T11:58:53.922Z,27.70
2023-08-02T12:01:21.706Z,27.70
2023-08-02T12:04:00.612Z,27.80
2023-08-02T12:06:29.656Z,28.20
2023-08-02T12:09:01.779Z,27.90
2023-08-02T12:11:30.502Z,26.20
2023-08-02T12:13:59.453Z,26.20
2023-08-02T12:16:39.964Z,26.80
2023-08-02T12:19:07.557Z,25.60
2023-08-02T12:21:34.842Z,25.00
2023-08-02T12:24:13.825Z,24.90
2023-08-02T12:26:41.414Z,24.60
2023-08-02T12:29:09.451Z,25.80
2023-08-02T12:31:47.344Z,28.40
2023-08-02T12:34:14.839Z,28.90
2023-08-02T12:36:42.373Z,28.60
2023-08-02T12:39:10.146Z,27.00
2023-08-02T12:41:37.395Z,27.80
2023-08-02T12:44:06.279Z,31.00
2023-08-02T12:46:34.171Z,32.30
2023-08-02T12:49:01.383Z,29.00
2023-08-02T12:51:28.602Z,27.60
2023-08-02T12:53:55.998Z,27.00
2023-08-02T12:56:23.187Z,26.70
2023-08-02T12:58:50.422Z,26.50
2023-08-02T13:01:17.905Z,28.10
2023-08-02T13:03:45.325Z,29.60
2023-08-02T13:06:12.738Z,29.60
2023-08-02T13:08:39.962Z,30.00
2023-08-02T13:11:07.331Z,31.00
2023-08-02T13:13:34.789Z,32.00
2023-08-02T13:16:01.998Z,30.80
2023-08-02T13:18:30.598Z,30.50
2023-08-02T13:20:58.998Z,30.40
2023-08-02T13:23:27.942Z,30.10
2023-08-02T13:25:55.717Z,29.50
2023-08-02T13:28:23.034Z,30.10
2023-08-02T13:30:50.560Z,30.60
2023-08-02T13:33:17.769Z,31.40
2023-08-02T13:35:44.988Z,29.90
2023-08-02T13:38:12.281Z,30.50
2023-08-02T13:40:39.473Z,28.60
2023-08-02T13:43:06.651Z,30.10
2023-08-02T13:45:33.888Z,29.00
2023-08-02T13:48:03.800Z,27.80
2023-08-02T13:50:33.870Z,26.90
2023-08-02T13:53:01.230Z,26.40
2023-08-02T13:55:28.516Z,26.30
2023-08-02T13:57:55.724Z,25.90
2023-08-02T14:00:22.910Z,25.40
2023-08-02T14:03:08.677Z,24.90
2023-08-02T14:05:35.938Z,25.00
2023-08-02T14:08:03.265Z,24.90
2023-08-02T14:10:30.716Z,24.70
2023-08-02T14:12:59.738Z,24.60
2023-08-02T14:15:27.404Z,24.60
2023-08-02T14:17:54.756Z,25.00
2023-08-02T14:20:22.089Z,27.40
2023-08-02T14:22:49.384Z,28.10
2023-08-02T14:25:16.682Z,28.30
2023-08-02T14:27:43.848Z,28.30
2023-08-02T14:30:11.642Z,27.60
2023-08-02T14:32:38.954Z,27.20
2023-08-02T14:35:07.769Z,26.20
2023-08-02T14:37:35.335Z,25.10
2023-08-02T14:40:02.940Z,24.80
2023-08-02T14:42:30.775Z,24.60
2023-08-02T14:44:58.089Z,24.50
2023-08-02T14:47:25.326Z,24.90
2023-08-02T14:49:52.654Z,25.00
2023-08-02T14:52:20.052Z,25.40
2023-08-02T14:54:47.469Z,25.20
2023-08-02T14:57:14.933Z,24.90
2023-08-02T14:59:42.213Z,24.60
2023-08-02T15:02:09.511Z,24.50
2023-08-02T15:04:36.855Z,24.60
2023-08-02T15:07:04.280Z,24.70
2023-08-02T15:09:32.119Z,24.70
2023-08-02T15:11:59.623Z,24.50
2023-08-02T15:14:27.081Z,24.60
2023-08-02T15:16:56.824Z,24.60
2023-08-02T15:19:24.636Z,24.60
2023-08-02T15:21:51.991Z,24.60
2023-08-02T15:24:19.270Z,24.60
2023-08-02T15:26:46.548Z,24.50
2023-08-02T15:29:13.778Z,24.30
2023-08-02T15:31:44.966Z,24.30
2023-08-02T15:34:12.413Z,24.20
2023-08-02T15:36:39.702Z,24.30
2023-08-02T15:39:06.927Z,24.40
2023-08-02T15:41:34.684Z,24.30
2023-08-02T15:44:01.974Z,24.20
2023-08-02T15:46:29.310Z,24.20
2023-08-02T15:48:56.543Z,24.30
2023-08-02T15:51:23.965Z,24.50
2023-08-02T15:53:51.272Z,24.20
2023-08-02T15:56:19.080Z,24.20
2023-08-02T15:58:46.888Z,24.20
2023-08-02T16:01:14.418Z,24.10
2023-08-02T16:03:41.857Z,24.10
2023-08-02T16:06:09.728Z,24.40
2023-08-02T16:08:38.286Z,24.20
2023-08-02T16:11:06.738Z,24.10
2023-08-02T16:13:34.859Z,24.20
2023-08-02T16:16:02.145Z,24.10
2023-08-02T16:18:29.451Z,24.20
2023-08-02T16:20:57.019Z,24.10
2023-08-02T16:23:24.414Z,24.00
2023-08-02T16:25:51.657Z,24.10
2023-08-02T16:28:18.888Z,24.00
2023-08-02T16:30:46.259Z,24.00
2023-08-02T16:33:13.575Z,24.20
2023-08-02T16:35:43.302Z,24.00
2023-08-02T16:38:16.088Z,24.10
2023-08-02T16:40:46.931Z,24.00
2023-08-02T16:43:14.357Z,24.00
2023-08-02T16:45:41.857Z,23.90
2023-08-02T16:48:09.183Z,23.80
2023-08-02T16:50:36.797Z,23.70
2023-08-02T16:53:04.122Z,23.60
2023-08-02T16:55:31.393Z,23.60
2023-08-02T16:58:00.475Z,23.70
2023-08-02T17:00:27.846Z,23.60
2023-08-02T17:02:55.223Z,23.50
2023-08-02T17:05:22.876Z,23.50
2023-08-02T17:07:50.052Z,23.50
2023-08-02T17:10:17.254Z,23.40
2023-08-02T17:12:46.584Z,23.40
2023-08-02T17:15:13.792Z,23.40
2023-08-02T17:17:41.193Z,23.30
2023-08-02T17:20:10.559Z,23.20
2023-08-02T17:22:37.834Z,23.20
2023-08-02T17:25:05.376Z,23.10
2023-08-02T17:27:32.694Z,23.00
2023-08-02T17:29:59.883Z,23.00
2023-08-02T17:32:27.248Z,22.90
2023-08-02T17:34:55.957Z,23.00
2023-08-02T17:37:23.278Z,22.90
2023-08-02T17:39:54.922Z,22.90
2023-08-02T17:42:22.432Z,22.90
2023-08-02T17:44:49.745Z,22.90
2023-08-02T17:47:17.036Z,22.90
2023-08-02T17:49:44.675Z,22.90
2023-08-02T17:52:12.181Z,22.80
2023-08-02T17:54:39.464Z,22.80
2023-08-02T17:57:07.027Z,22.80
2023-08-02T17:59:34.359Z,22.70
2023-08-02T18:02:01.753Z,22.90
2023-08-02T18:04:29.037Z,22.80
2023-08-02T18:06:56.203Z,22.70
2023-08-02T18:09:23.403Z,22.60
2023-08-02T18:11:50.744Z,22.60
2023-08-02T18:14:18.031Z,22.50
2023-08-02T18:16:45.464Z,22.50
2023-08-02T18:19:12.725Z,22.50
2023-08-02T18:21:40.260Z,22.50
2023-08-02T18:24:07.724Z,22.50
2023-08-02T18:26:34.961Z,22.50
2023-08-02T18:29:02.262Z,22.50
2023-08-02T18:31:31.412Z,22.40
2023-08-02T18:33:58.689Z,22.50
2023-08-02T18:36:26.087Z,22.40
2023-08-02T18:38:53.335Z,22.40
2023-08-02T18:41:25.087Z,22.40
2023-08-02T18:43:53.282Z,22.30
2023-08-02T18:46:22.594Z,22.30
2023-08-02T18:48:50.798Z,22.30
2023-08-02T18:51:18.464Z,22.30
2023-08-02T18:53:50.104Z,22.20
2023-08-02T18:56:21.274Z,22.20
2023-08-02T18:58:50.496Z,22.20
2023-08-02T19:01:18.386Z,22.20
2023-08-02T19:03:46.733Z,22.20
2023-08-02T19:06:15.384Z,22.10
2023-08-02T19:08:45.726Z,22.10
2023-08-02T19:11:21.118Z,22.10
2023-08-02T19:13:48.809Z,22.00
2023-08-02T19:16:16.674Z,22.10
2023-08-02T19:18:44.928Z,22.10
2023-08-02T19:21:16.546Z,22.00
2023-08-02T19:23:45.112Z,22.00
2023-08-02T19:26:17.523Z,22.00
2023-08-02T19:28:45.324Z,22.00
2023-08-02T19:31:15.074Z,22.00
2023-08-02T19:33:46.423Z,22.00
2023-08-02T19:36:21.848Z,22.00
2023-08-02T19:38:50.432Z,22.00
2023-08-02T19:41:26.693Z,22.00
2023-08-02T19:43:55.481Z,22.00
2023-08-02T19:46:25.165Z,22.00
2023-08-02T19:48:52.727Z,22.00
2023-08-02T19:51:20.244Z,22.00
2023-08-02T19:53:47.713Z,21.90
2023-08-02T19:56:20.723Z,21.90
2023-08-02T19:58:48.171Z,21.90
2023-08-02T20:01:15.580Z,21.90
2023-08-02T20:03:42.993Z,21.90
2023-08-02T20:06:12.157Z,21.80
2023-08-02T20:08:39.751Z,21.80
2023-08-02T20:11:08.374Z,21.90
2023-08-02T20:13:37.348Z,21.80
2023-08-02T20:16:19.194Z,21.80
2023-08-02T20:18:47.857Z,21.80
2023-08-02T20:21:22.100Z,21.70
2023-08-02T20:23:57.442Z,21.70
2023-08-02T20:26:25.968Z,21.60
2023-08-02T20:28:56.982Z,21.60
2023-08-02T20:31:26.805Z,21.70
2023-08-02T20:33:55.609Z,21.60
2023-08-02T20:36:24.880Z,21.60
2023-08-02T20:38:54.364Z,21.60
2023-08-02T20:41:28.444Z,21.50
2023-08-02T20:43:57.633Z,21.50
2023-08-02T20:46:30.333Z,21.50
2023-08-02T20:49:00.541Z,21.50
2023-08-02T20:51:39.128Z,21.50
2023-08-02T20:54:08.324Z,21.40
2023-08-02T20:56:36.105Z,21.40
2023-08-02T20:59:11.574Z,21.40
2023-08-02T21:01:41.868Z,21.40
2023-08-02T21:04:11.434Z,21.40
2023-08-02T21:06:39.886Z,21.30
2023-08-02T21:09:07.633Z,21.40
2023-08-02T21:11:34.927Z,21.40
2023-08-02T21:14:02.365Z,21.30
2023-08-02T21:16:29.714Z,21.30
2023-08-02T21:18:57.054Z,21.30
2023-08-02T21:21:24.435Z,21.20
2023-08-02T21:23:51.649Z,21.20
2023-08-02T21:26:21.733Z,21.20
2023-08-02T21:28:50.639Z,21.20
2023-08-02T21:31:20.094Z,21.20
2023-08-02T21:33:48.356Z,21.30
2023-08-02T21:36:25.865Z,21.10
2023-08-02T21:38:53.129Z,21.10
2023-08-02T21:41:21.026Z,21.10
2023-08-02T21:43:50.622Z,21.10
2023-08-02T21:46:19.170Z,21.10
2023-08-02T21:48:49.101Z,21.10
2023-08-02T21:51:18.131Z,21.30
2023-08-02T21:53:53.495Z,21.20
2023-08-02T21:56:26.094Z,21.00
2023-08-02T21:59:01.183Z,21.10
2023-08-02T22:01:32.739Z,21.00
2023-08-02T22:04:00.677Z,21.00
2023-08-02T22:06:31.863Z,21.10
2023-08-02T22:09:00.422Z,20.90
2023-08-02T22:11:28.095Z,20.90
2023-08-02T22:13:56.187Z,21.00
2023-08-02T22:16:23.674Z,20.90
2023-08-02T22:18:51.013Z,20.90
2023-08-02T22:21:22.360Z,20.90
2023-08-02T22:23:50.026Z,20.90
2023-08-02T22:26:17.720Z,20.90
2023-08-02T22:28:44.948Z,21.00
2023-08-02T22:31:15.315Z,20.90
2023-08-02T22:33:42.620Z,20.90
2023-08-02T22:36:09.896Z,20.80
2023-08-02T22:38:48.202Z,20.80
2023-08-02T22:41:16.797Z,20.80
2023-08-02T22:43:43.994Z,20.80
2023-08-02T22:46:11.489Z,20.80
2023-08-02T22:51:09.272Z,20.90
2023-08-02T22:53:36.722Z,20.80
2023-08-02T22:56:04.748Z,20.80
2023-08-02T22:58:34.390Z,20.80
2023-08-02T23:01:07.121Z,20.80
2023-08-02T23:03:44.860Z,20.70
2023-08-02T23:06:15.718Z,20.70
2023-08-02T23:08:43.204Z,20.70
2023-08-02T23:11:12.026Z,20.70
2023-08-02T23:13:47.265Z,20.70
2023-08-02T23:16:22.472Z,20.70
2023-08-02T23:18:51.578Z,20.80
2023-08-02T23:21:19.414Z,20.70
2023-08-02T23:23:49.506Z,20.80
2023-08-02T23:26:23.991Z,20.70
2023-08-02T23:28:53.024Z,20.70
2023-08-02T23:31:25.537Z,20.60
2023-08-02T23:33:54.624Z,20.70
2023-08-02T23:36:22.926Z,20.70
2023-08-02T23:38:50.199Z,20.80
2023-08-02T23:41:17.426Z,20.70
2023-08-02T23:43:44.608Z,20.80
2023-08-02T23:46:11.944Z,20.70
2023-08-02T23:48:39.444Z,20.70
2023-08-02T23:51:06.778Z,20.80
2023-08-02T23:53:35.498Z,20.70
2023-08-02T23:56:02.807Z,20.60
2023-08-02T23:58:30.054Z,20.60
